Pine Grove, New York
Current Conditions -  °F | °C
As of 10:58 AM on Friday 24 Oct 2014 (Local Time) from KGTB Reporting Station
Clear Clear  
Wind Chill: 50°   Ceiling: Unl
Heat Index: 50°   Visibility: 10mi
Dew Point: 41°   Wind: 6mph
Humidity: 71%   Direction: NA
Pressure: 29.92"   Gusts: NA
Location:  43.7232°N, 75.2497°W
Report Text: KGTB 241458Z VRB05KT 10SM CLR 10/05 A2992 RMK AO2A SLP135 6//// 58002
Loading
Personal Weather Stations






























Interactive Weather Map New forecast layout! Learn more

10-Day Weather Forecast

Advertisements
Track Severe Weather on mobile